sensor_id;sensor_type;location;lat;lon;timestamp;temperature;humidity
41304;DHT22;51002;51.462;7.218;2022-07-29T06:25:40;19.10;59.00
41304;DHT22;51002;51.462;7.218;2022-07-29T06:28:06;19.20;59.00
41304;DHT22;51002;51.462;7.218;2022-07-29T06:30:31;19.20;59.60
41304;DHT22;51002;51.462;7.218;2022-07-29T06:32:57;19.20;59.20
41304;DHT22;51002;51.462;7.218;2022-07-29T06:35:22;19.20;59.30
41304;DHT22;51002;51.462;7.218;2022-07-29T06:37:48;19.20;59.60
41304;DHT22;51002;51.462;7.218;2022-07-29T06:40:14;19.30;59.30
41304;DHT22;51002;51.462;7.218;2022-07-29T06:42:58;19.30;60.40
41304;DHT22;51002;51.462;7.218;2022-07-29T06:45:23;19.20;61.20
41304;DHT22;51002;51.462;7.218;2022-07-29T06:47:49;19.30;61.80
41304;DHT22;51002;51.462;7.218;2022-07-29T06:50:15;19.30;61.70
41304;DHT22;51002;51.462;7.218;2022-07-29T06:52:40;19.40;61.80
41304;DHT22;51002;51.462;7.218;2022-07-29T06:55:06;19.30;61.80
41304;DHT22;51002;51.462;7.218;2022-07-29T06:57:32;19.30;62.00
41304;DHT22;51002;51.462;7.218;2022-07-29T06:59:58;19.40;61.30
41304;DHT22;51002;51.462;7.218;2022-07-29T07:02:23;19.40;61.10
41304;DHT22;51002;51.462;7.218;2022-07-29T07:04:51;19.40;61.30
41304;DHT22;51002;51.462;7.218;2022-07-29T07:07:17;19.60;61.50
41304;DHT22;51002;51.462;7.218;2022-07-29T07:09:44;19.50;61.70
41304;DHT22;51002;51.462;7.218;2022-07-29T07:12:11;19.50;61.60
41304;DHT22;51002;51.462;7.218;2022-07-29T07:14:39;19.60;61.90
41304;DHT22;51002;51.462;7.218;2022-07-29T07:17:09;19.70;61.80
41304;DHT22;51002;51.462;7.218;2022-07-29T07:19:37;19.80;61.30
41304;DHT22;51002;51.462;7.218;2022-07-29T07:22:03;20.00;61.10
41304;DHT22;51002;51.462;7.218;2022-07-29T07:24:31;20.00;60.60
41304;DHT22;51002;51.462;7.218;2022-07-29T07:26:57;20.00;60.70
41304;DHT22;51002;51.462;7.218;2022-07-29T07:29:22;20.10;60.40
41304;DHT22;51002;51.462;7.218;2022-07-29T07:31:51;20.20;59.90
41304;DHT22;51002;51.462;7.218;2022-07-29T07:34:16;20.30;60.30
41304;DHT22;51002;51.462;7.218;2022-07-29T07:36:44;20.30;59.90
41304;DHT22;51002;51.462;7.218;2022-07-29T07:39:12;20.20;58.90
41304;DHT22;51002;51.462;7.218;2022-07-29T07:41:43;20.20;58.20
41304;DHT22;51002;51.462;7.218;2022-07-29T07:44:10;20.30;58.70
41304;DHT22;51002;51.462;7.218;2022-07-29T07:46:36;20.20;58.70
41304;DHT22;51002;51.462;7.218;2022-07-29T07:49:01;20.00;59.30
41304;DHT22;51002;51.462;7.218;2022-07-29T07:51:27;20.00;59.50
41304;DHT22;51002;51.462;7.218;2022-07-29T07:53:52;20.10;60.00
41304;DHT22;51002;51.462;7.218;2022-07-29T07:56:23;20.00;59.60
41304;DHT22;51002;51.462;7.218;2022-07-29T07:58:49;19.90;60.40
41304;DHT22;51002;51.462;7.218;2022-07-29T08:01:16;20.00;60.50
41304;DHT22;51002;51.462;7.218;2022-07-29T08:03:44;20.20;60.00
41304;DHT22;51002;51.462;7.218;2022-07-29T08:06:09;20.20;59.80
41304;DHT22;51002;51.462;7.218;2022-07-29T08:08:37;20.00;59.10
41304;DHT22;51002;51.462;7.218;2022-07-29T08:11:02;19.70;60.30
41304;DHT22;51002;51.462;7.218;2022-07-29T08:13:31;19.80;60.10
41304;DHT22;51002;51.462;7.218;2022-07-29T08:15:59;20.00;59.50
41304;DHT22;51002;51.462;7.218;2022-07-29T08:18:36;20.20;59.00
41304;DHT22;51002;51.462;7.218;2022-07-29T08:21:02;20.20;59.30
41304;DHT22;51002;51.462;7.218;2022-07-29T08:23:31;20.20;59.30
41304;DHT22;51002;51.462;7.218;2022-07-29T08:26:11;20.20;58.90
41304;DHT22;51002;51.462;7.218;2022-07-29T08:28:40;20.30;59.00
41304;DHT22;51002;51.462;7.218;2022-07-29T08:31:07;20.20;59.60
41304;DHT22;51002;51.462;7.218;2022-07-29T08:33:34;20.30;59.00
41304;DHT22;51002;51.462;7.218;2022-07-29T08:36:05;20.30;58.00
41304;DHT22;51002;51.462;7.218;2022-07-29T08:38:31;20.40;58.50
41304;DHT22;51002;51.462;7.218;2022-07-29T08:40:59;20.50;58.40
41304;DHT22;51002;51.462;7.218;2022-07-29T08:43:25;20.40;57.60
41304;DHT22;51002;51.462;7.218;2022-07-29T08:45:53;20.30;58.00
41304;DHT22;51002;51.462;7.218;2022-07-29T08:48:22;20.40;58.30
41304;DHT22;51002;51.462;7.218;2022-07-29T08:50:48;20.40;58.30
41304;DHT22;51002;51.462;7.218;2022-07-29T08:53:17;20.50;58.70
41304;DHT22;51002;51.462;7.218;2022-07-29T08:55:44;20.50;59.00
41304;DHT22;51002;51.462;7.218;2022-07-29T08:58:10;20.30;58.90
41304;DHT22;51002;51.462;7.218;2022-07-29T09:00:36;20.30;59.00
41304;DHT22;51002;51.462;7.218;2022-07-29T09:03:07;20.40;59.20
41304;DHT22;51002;51.462;7.218;2022-07-29T09:05:33;20.10;59.40
41304;DHT22;51002;51.462;7.218;2022-07-29T09:08:01;20.10;60.40
41304;DHT22;51002;51.462;7.218;2022-07-29T09:10:27;20.30;60.70
41304;DHT22;51002;51.462;7.218;2022-07-29T09:12:54;20.30;61.20
41304;DHT22;51002;51.462;7.218;2022-07-29T09:15:22;20.40;62.70
41304;DHT22;51002;51.462;7.218;2022-07-29T09:17:50;20.30;63.60
41304;DHT22;51002;51.462;7.218;2022-07-29T09:20:16;20.30;64.80
41304;DHT22;51002;51.462;7.218;2022-07-29T09:22:44;20.30;65.30
41304;DHT22;51002;51.462;7.218;2022-07-29T09:25:16;20.30;65.40
41304;DHT22;51002;51.462;7.218;2022-07-29T09:28:04;20.20;64.90
41304;DHT22;51002;51.462;7.218;2022-07-29T09:30:30;20.20;64.60
41304;DHT22;51002;51.462;7.218;2022-07-29T09:33:01;20.20;64.60
41304;DHT22;51002;51.462;7.218;2022-07-29T09:35:30;20.20;64.80
41304;DHT22;51002;51.462;7.218;2022-07-29T09:38:09;20.20;64.20
41304;DHT22;51002;51.462;7.218;2022-07-29T09:40:39;20.20;64.80
41304;DHT22;51002;51.462;7.218;2022-07-29T09:43:11;20.10;64.30
41304;DHT22;51002;51.462;7.218;2022-07-29T09:45:40;19.60;65.10
41304;DHT22;51002;51.462;7.218;2022-07-29T09:48:19;19.30;64.40
41304;DHT22;51002;51.462;7.218;2022-07-29T09:50:50;19.50;64.70
41304;DHT22;51002;51.462;7.218;2022-07-29T09:53:35;19.40;64.30
41304;DHT22;51002;51.462;7.218;2022-07-29T09:56:01;19.30;65.00
41304;DHT22;51002;51.462;7.218;2022-07-29T09:58:30;19.40;65.10
41304;DHT22;51002;51.462;7.218;2022-07-29T10:00:55;19.10;65.90
41304;DHT22;51002;51.462;7.218;2022-07-29T10:03:21;19.50;65.30
41304;DHT22;51002;51.462;7.218;2022-07-29T10:06:03;19.20;65.60
41304;DHT22;51002;51.462;7.218;2022-07-29T10:08:29;19.20;65.60
41304;DHT22;51002;51.462;7.218;2022-07-29T10:11:05;19.30;64.90
41304;DHT22;51002;51.462;7.218;2022-07-29T10:13:35;19.10;65.00
41304;DHT22;51002;51.462;7.218;2022-07-29T10:16:01;19.20;64.00
41304;DHT22;51002;51.462;7.218;2022-07-29T10:18:27;19.20;63.90
41304;DHT22;51002;51.462;7.218;2022-07-29T10:20:53;19.40;64.10
41304;DHT22;51002;51.462;7.218;2022-07-29T10:23:21;19.50;63.20
41304;DHT22;51002;51.462;7.218;2022-07-29T10:25:46;19.30;63.50
41304;DHT22;51002;51.462;7.218;2022-07-29T10:28:12;19.30;64.00
41304;DHT22;51002;51.462;7.218;2022-07-29T10:30:38;19.60;63.70
41304;DHT22;51002;51.462;7.218;2022-07-29T10:41:12;19.60;63.00
41304;DHT22;51002;51.462;7.218;2022-07-29T10:43:55;19.70;63.20
41304;DHT22;51002;51.462;7.218;2022-07-29T10:46:22;19.80;63.20
41304;DHT22;51002;51.462;7.218;2022-07-29T10:51:53;19.90;63.10
41304;DHT22;51002;51.462;7.218;2022-07-29T10:57:17;19.80;63.50
41304;DHT22;51002;51.462;7.218;2022-07-29T10:59:48;19.70;63.80
41304;DHT22;51002;51.462;7.218;2022-07-29T11:07:31;19.80;65.00
41304;DHT22;51002;51.462;7.218;2022-07-29T11:15:03;19.70;71.50
41304;DHT22;51002;51.462;7.218;2022-07-29T11:20:31;19.60;72.10
41304;DHT22;51002;51.462;7.218;2022-07-29T11:22:59;19.60;72.80
41304;DHT22;51002;51.462;7.218;2022-07-29T11:25:25;19.60;72.90
41304;DHT22;51002;51.462;7.218;2022-07-29T11:27:51;19.70;72.90
41304;DHT22;51002;51.462;7.218;2022-07-29T11:30:18;19.70;71.30
41304;DHT22;51002;51.462;7.218;2022-07-29T11:32:44;19.80;73.10
41304;DHT22;51002;51.462;7.218;2022-07-29T11:37:35;19.90;73.40
41304;DHT22;51002;51.462;7.218;2022-07-29T11:45:09;19.80;68.80
41304;DHT22;51002;51.462;7.218;2022-07-29T11:47:36;19.90;69.60
41304;DHT22;51002;51.462;7.218;2022-07-29T11:50:07;20.10;69.50
41304;DHT22;51002;51.462;7.218;2022-07-29T11:52:42;20.10;68.50
41304;DHT22;51002;51.462;7.218;2022-07-29T11:55:15;20.30;68.60
41304;DHT22;51002;51.462;7.218;2022-07-29T12:00:21;20.40;68.40
41304;DHT22;51002;51.462;7.218;2022-07-29T12:02:50;20.50;68.00
41304;DHT22;51002;51.462;7.218;2022-07-29T12:05:18;20.50;66.50
41304;DHT22;51002;51.462;7.218;2022-07-29T12:07:43;20.50;63.70
41304;DHT22;51002;51.462;7.218;2022-07-29T12:10:09;20.40;63.90
41304;DHT22;51002;51.462;7.218;2022-07-29T12:12:35;20.60;64.40
41304;DHT22;51002;51.462;7.218;2022-07-29T12:15:14;20.70;64.90
41304;DHT22;51002;51.462;7.218;2022-07-29T12:17:40;20.80;63.60
41304;DHT22;51002;51.462;7.218;2022-07-29T12:20:08;20.50;60.90
41304;DHT22;51002;51.462;7.218;2022-07-29T12:22:39;20.20;59.70
41304;DHT22;51002;51.462;7.218;2022-07-29T12:25:07;20.20;61.30
41304;DHT22;51002;51.462;7.218;2022-07-29T12:27:33;20.40;60.30
41304;DHT22;51002;51.462;7.218;2022-07-29T12:30:05;20.40;60.90
41304;DHT22;51002;51.462;7.218;2022-07-29T12:32:43;20.70;61.30
41304;DHT22;51002;51.462;7.218;2022-07-29T12:35:11;20.70;59.60
41304;DHT22;51002;51.462;7.218;2022-07-29T12:37:41;20.70;59.60
41304;DHT22;51002;51.462;7.218;2022-07-29T12:40:07;20.70;59.90
41304;DHT22;51002;51.462;7.218;2022-07-29T12:42:34;20.50;58.20
41304;DHT22;51002;51.462;7.218;2022-07-29T12:45:00;20.70;58.50
41304;DHT22;51002;51.462;7.218;2022-07-29T12:47:30;20.90;59.10
41304;DHT22;51002;51.462;7.218;2022-07-29T12:50:13;21.20;59.50
41304;DHT22;51002;51.462;7.218;2022-07-29T12:52:43;21.30;60.30
41304;DHT22;51002;51.462;7.218;2022-07-29T12:55:11;21.50;58.30
41304;DHT22;51002;51.462;7.218;2022-07-29T12:57:46;21.60;59.60
41304;DHT22;51002;51.462;7.218;2022-07-29T13:00:16;21.60;58.50
41304;DHT22;51002;51.462;7.218;2022-07-29T13:02:42;21.60;58.80
41304;DHT22;51002;51.462;7.218;2022-07-29T13:05:12;21.50;57.30
41304;DHT22;51002;51.462;7.218;2022-07-29T13:07:38;21.60;58.50
41304;DHT22;51002;51.462;7.218;2022-07-29T13:12:35;21.80;57.80
41304;DHT22;51002;51.462;7.218;2022-07-29T13:15:13;21.90;56.40
41304;DHT22;51002;51.462;7.218;2022-07-29T13:17:40;21.90;57.10
41304;DHT22;51002;51.462;7.218;2022-07-29T13:20:08;21.80;56.50
41304;DHT22;51002;51.462;7.218;2022-07-29T13:22:37;22.00;56.60
41304;DHT22;51002;51.462;7.218;2022-07-29T13:25:06;21.90;57.20
41304;DHT22;51002;51.462;7.218;2022-07-29T13:27:32;21.90;56.20
41304;DHT22;51002;51.462;7.218;2022-07-29T13:29:59;21.90;57.20
41304;DHT22;51002;51.462;7.218;2022-07-29T13:32:28;22.00;57.00
41304;DHT22;51002;51.462;7.218;2022-07-29T13:34:54;22.20;56.60
41304;DHT22;51002;51.462;7.218;2022-07-29T13:37:34;22.20;55.90
41304;DHT22;51002;51.462;7.218;2022-07-29T13:40:00;22.10;56.60
41304;DHT22;51002;51.462;7.218;2022-07-29T13:42:28;21.80;57.30
41304;DHT22;51002;51.462;7.218;2022-07-29T13:44:53;22.20;57.00
41304;DHT22;51002;51.462;7.218;2022-07-29T13:47:23;22.20;57.90
41304;DHT22;51002;51.462;7.218;2022-07-29T13:49:49;22.20;57.50
41304;DHT22;51002;51.462;7.218;2022-07-29T13:52:14;22.30;57.70
41304;DHT22;51002;51.462;7.218;2022-07-29T13:54:41;22.20;56.70
41304;DHT22;51002;51.462;7.218;2022-07-29T13:57:09;22.30;56.40
41304;DHT22;51002;51.462;7.218;2022-07-29T13:59:35;22.30;55.50
41304;DHT22;51002;51.462;7.218;2022-07-29T14:02:19;22.00;56.00
41304;DHT22;51002;51.462;7.218;2022-07-29T14:05:05;22.10;56.10
41304;DHT22;51002;51.462;7.218;2022-07-29T14:10:32;22.20;55.60
41304;DHT22;51002;51.462;7.218;2022-07-29T14:12:58;22.30;55.40
41304;DHT22;51002;51.462;7.218;2022-07-29T14:15:32;22.40;55.30
41304;DHT22;51002;51.462;7.218;2022-07-29T14:21:10;22.70;56.00
41304;DHT22;51002;51.462;7.218;2022-07-29T14:23:37;22.70;55.60
41304;DHT22;51002;51.462;7.218;2022-07-29T14:26:02;22.80;55.30
41304;DHT22;51002;51.462;7.218;2022-07-29T14:28:28;22.60;54.30
41304;DHT22;51002;51.462;7.218;2022-07-29T14:33:38;22.70;53.70
41304;DHT22;51002;51.462;7.218;2022-07-29T14:36:03;22.80;54.30
41304;DHT22;51002;51.462;7.218;2022-07-29T14:38:29;22.80;54.20
41304;DHT22;51002;51.462;7.218;2022-07-29T14:40:54;22.80;53.40
41304;DHT22;51002;51.462;7.218;2022-07-29T14:43:20;22.80;53.70
41304;DHT22;51002;51.462;7.218;2022-07-29T14:45:46;22.80;53.80
41304;DHT22;51002;51.462;7.218;2022-07-29T14:51:33;22.80;53.00
41304;DHT22;51002;51.462;7.218;2022-07-29T14:53:59;22.80;52.70
41304;DHT22;51002;51.462;7.218;2022-07-29T14:56:27;22.80;53.10
41304;DHT22;51002;51.462;7.218;2022-07-29T15:08:03;23.00;53.30
41304;DHT22;51002;51.462;7.218;2022-07-29T15:10:38;23.20;53.40
41304;DHT22;51002;51.462;7.218;2022-07-29T15:13:04;23.00;52.40
41304;DHT22;51002;51.462;7.218;2022-07-29T15:15:29;23.10;52.80
41304;DHT22;51002;51.462;7.218;2022-07-29T15:17:55;23.20;53.20
41304;DHT22;51002;51.462;7.218;2022-07-29T15:20:29;23.10;52.40
41304;DHT22;51002;51.462;7.218;2022-07-29T15:23:13;23.20;52.90
41304;DHT22;51002;51.462;7.218;2022-07-29T15:25:43;23.00;51.40
41304;DHT22;51002;51.462;7.218;2022-07-29T15:28:14;23.00;52.30
41304;DHT22;51002;51.462;7.218;2022-07-29T15:30:40;23.10;52.70
41304;DHT22;51002;51.462;7.218;2022-07-29T15:33:06;23.10;53.00
41304;DHT22;51002;51.462;7.218;2022-07-29T15:35:35;23.20;51.70
41304;DHT22;51002;51.462;7.218;2022-07-29T15:38:00;23.20;50.40
41304;DHT22;51002;51.462;7.218;2022-07-29T15:40:26;23.30;50.70
41304;DHT22;51002;51.462;7.218;2022-07-29T15:42:52;23.20;50.40
41304;DHT22;51002;51.462;7.218;2022-07-29T15:45:17;23.20;51.00
41304;DHT22;51002;51.462;7.218;2022-07-29T15:47:43;23.20;51.10
41304;DHT22;51002;51.462;7.218;2022-07-29T15:50:08;23.20;53.50
41304;DHT22;51002;51.462;7.218;2022-07-29T15:52:38;23.30;54.30
41304;DHT22;51002;51.462;7.218;2022-07-29T15:55:04;23.40;53.80
41304;DHT22;51002;51.462;7.218;2022-07-29T15:57:30;23.40;54.40
41304;DHT22;51002;51.462;7.218;2022-07-29T15:59:55;23.40;54.40
41304;DHT22;51002;51.462;7.218;2022-07-29T16:02:21;23.40;54.70
41304;DHT22;51002;51.462;7.218;2022-07-29T16:04:47;23.40;55.20
41304;DHT22;51002;51.462;7.218;2022-07-29T16:07:12;23.40;55.30
41304;DHT22;51002;51.462;7.218;2022-07-29T16:09:38;23.40;55.30
41304;DHT22;51002;51.462;7.218;2022-07-29T16:12:03;23.40;56.10
41304;DHT22;51002;51.462;7.218;2022-07-29T16:14:29;23.40;55.60
41304;DHT22;51002;51.462;7.218;2022-07-29T16:16:54;23.20;55.00
41304;DHT22;51002;51.462;7.218;2022-07-29T16:19:20;23.30;55.60
41304;DHT22;51002;51.462;7.218;2022-07-29T16:21:46;23.50;55.30
41304;DHT22;51002;51.462;7.218;2022-07-29T16:24:11;23.50;55.00
41304;DHT22;51002;51.462;7.218;2022-07-29T16:26:39;23.50;55.00
41304;DHT22;51002;51.462;7.218;2022-07-29T16:29:04;23.50;55.30
41304;DHT22;51002;51.462;7.218;2022-07-29T16:31:30;23.50;54.80
41304;DHT22;51002;51.462;7.218;2022-07-29T16:33:56;23.50;55.10
41304;DHT22;51002;51.462;7.218;2022-07-29T16:36:21;23.50;55.00
41304;DHT22;51002;51.462;7.218;2022-07-29T16:38:47;23.40;54.40
41304;DHT22;51002;51.462;7.218;2022-07-29T16:41:13;23.40;54.90
41304;DHT22;51002;51.462;7.218;2022-07-29T16:43:38;23.30;54.50
41304;DHT22;51002;51.462;7.218;2022-07-29T16:46:06;23.30;54.80
41304;DHT22;51002;51.462;7.218;2022-07-29T16:48:32;23.40;55.30
41304;DHT22;51002;51.462;7.218;2022-07-29T16:50:58;23.40;55.40
41304;DHT22;51002;51.462;7.218;2022-07-29T16:53:24;23.40;55.50
41304;DHT22;51002;51.462;7.218;2022-07-29T16:55:49;23.40;55.20
41304;DHT22;51002;51.462;7.218;2022-07-29T16:58:17;23.50;55.20
41304;DHT22;51002;51.462;7.218;2022-07-29T17:00:43;23.40;55.10
41304;DHT22;51002;51.462;7.218;2022-07-29T17:03:08;23.40;55.70
41304;DHT22;51002;51.462;7.218;2022-07-29T17:05:34;23.20;55.70
41304;DHT22;51002;51.462;7.218;2022-07-29T17:07:59;23.20;55.80
41304;DHT22;51002;51.462;7.218;2022-07-29T17:10:25;23.30;55.80
41304;DHT22;51002;51.462;7.218;2022-07-29T17:12:50;23.30;55.40
41304;DHT22;51002;51.462;7.218;2022-07-29T17:15:16;23.20;55.60
41304;DHT22;51002;51.462;7.218;2022-07-29T17:17:43;23.20;55.90
41304;DHT22;51002;51.462;7.218;2022-07-29T17:20:09;23.20;55.60
41304;DHT22;51002;51.462;7.218;2022-07-29T17:22:44;23.20;55.60
41304;DHT22;51002;51.462;7.218;2022-07-29T17:25:12;23.30;55.40
41304;DHT22;51002;51.462;7.218;2022-07-29T17:27:40;23.20;55.40
41304;DHT22;51002;51.462;7.218;2022-07-29T17:30:06;23.20;55.40
41304;DHT22;51002;51.462;7.218;2022-07-29T17:32:32;23.20;55.40
41304;DHT22;51002;51.462;7.218;2022-07-29T17:35:03;23.20;55.40
41304;DHT22;51002;51.462;7.218;2022-07-29T17:50:42;23.00;53.40
41304;DHT22;51002;51.462;7.218;2022-07-29T17:53:16;23.10;53.30
41304;DHT22;51002;51.462;7.218;2022-07-29T17:58:45;22.90;52.00
41304;DHT22;51002;51.462;7.218;2022-07-29T18:01:12;22.90;52.30
41304;DHT22;51002;51.462;7.218;2022-07-29T18:03:37;23.00;53.20
41304;DHT22;51002;51.462;7.218;2022-07-29T18:06:03;23.10;53.50
41304;DHT22;51002;51.462;7.218;2022-07-29T18:08:36;23.00;54.00
41304;DHT22;51002;51.462;7.218;2022-07-29T18:14:18;23.00;54.10
41304;DHT22;51002;51.462;7.218;2022-07-29T18:16:43;22.90;53.70
41304;DHT22;51002;51.462;7.218;2022-07-29T18:19:11;22.90;53.80
41304;DHT22;51002;51.462;7.218;2022-07-29T18:22:10;22.90;53.60
41304;DHT22;51002;51.462;7.218;2022-07-29T18:24:42;23.00;54.10
